sensor_id;sensor_type;location;lat;lon;timestamp;P1;durP1;ratioP1;P2;durP2;ratioP2
72286;SDS011;60221;45.696;16.076;2023-02-11T00:00:26;21.60;;;8.70;;
72286;SDS011;60221;45.696;16.076;2023-02-11T00:02:53;23.20;;;8.70;;
72286;SDS011;60221;45.696;16.076;2023-02-11T00:05:20;24.90;;;9.60;;
72286;SDS011;60221;45.696;16.076;2023-02-11T00:07:47;19.80;;;9.60;;
72286;SDS011;60221;45.696;16.076;2023-02-11T00:10:13;29.00;;;11.50;;
72286;SDS011;60221;45.696;16.076;2023-02-11T00:12:40;22.20;;;7.60;;
72286;SDS011;60221;45.696;16.076;2023-02-11T00:15:09;38.30;;;14.60;;
72286;SDS011;60221;45.696;16.076;2023-02-11T00:17:36;50.20;;;19.00;;
72286;SDS011;60221;45.696;16.076;2023-02-11T00:20:03;49.00;;;17.90;;
72286;SDS011;60221;45.696;16.076;2023-02-11T00:22:33;51.50;;;17.80;;
72286;SDS011;60221;45.696;16.076;2023-02-11T00:25:00;45.00;;;16.40;;
72286;SDS011;60221;45.696;16.076;2023-02-11T00:27:26;41.50;;;15.40;;
72286;SDS011;60221;45.696;16.076;2023-02-11T00:29:53;50.50;;;18.20;;
72286;SDS011;60221;45.696;16.076;2023-02-11T00:32:20;44.00;;;17.20;;
72286;SDS011;60221;45.696;16.076;2023-02-11T00:34:50;41.80;;;15.30;;
72286;SDS011;60221;45.696;16.076;2023-02-11T00:37:17;39.50;;;14.80;;
72286;SDS011;60221;45.696;16.076;2023-02-11T00:39:44;42.70;;;15.40;;
72286;SDS011;60221;45.696;16.076;2023-02-11T00:42:12;40.20;;;15.00;;
72286;SDS011;60221;45.696;16.076;2023-02-11T00:44:39;48.60;;;16.60;;
72286;SDS011;60221;45.696;16.076;2023-02-11T00:47:06;40.70;;;14.60;;
72286;SDS011;60221;45.696;16.076;2023-02-11T00:49:34;40.10;;;16.20;;
72286;SDS011;60221;45.696;16.076;2023-02-11T00:52:02;42.30;;;17.40;;
72286;SDS011;60221;45.696;16.076;2023-02-11T00:54:29;40.80;;;15.00;;
72286;SDS011;60221;45.696;16.076;2023-02-11T00:56:56;45.40;;;17.30;;
72286;SDS011;60221;45.696;16.076;2023-02-11T00:59:23;38.10;;;14.60;;
72286;SDS011;60221;45.696;16.076;2023-02-11T01:01:49;41.80;;;16.20;;
72286;SDS011;60221;45.696;16.076;2023-02-11T01:04:16;31.30;;;10.60;;
72286;SDS011;60221;45.696;16.076;2023-02-11T01:06:43;29.80;;;11.90;;
72286;SDS011;60221;45.696;16.076;2023-02-11T01:09:10;26.30;;;10.80;;
72286;SDS011;60221;45.696;16.076;2023-02-11T01:11:37;25.70;;;9.90;;
72286;SDS011;60221;45.696;16.076;2023-02-11T01:14:04;28.50;;;11.30;;
72286;SDS011;60221;45.696;16.076;2023-02-11T01:16:30;32.40;;;13.60;;
72286;SDS011;60221;45.696;16.076;2023-02-11T01:18:57;36.50;;;15.50;;
72286;SDS011;60221;45.696;16.076;2023-02-11T01:21:24;39.60;;;15.80;;
72286;SDS011;60221;45.696;16.076;2023-02-11T01:23:51;30.20;;;11.50;;
72286;SDS011;60221;45.696;16.076;2023-02-11T01:26:18;36.00;;;13.50;;
72286;SDS011;60221;45.696;16.076;2023-02-11T01:28:45;32.90;;;12.40;;
72286;SDS011;60221;45.696;16.076;2023-02-11T01:31:12;38.00;;;14.60;;
72286;SDS011;60221;45.696;16.076;2023-02-11T01:33:39;44.60;;;16.40;;
72286;SDS011;60221;45.696;16.076;2023-02-11T01:36:08;49.40;;;18.50;;
72286;SDS011;60221;45.696;16.076;2023-02-11T01:38:34;53.20;;;18.50;;
72286;SDS011;60221;45.696;16.076;2023-02-11T01:41:03;53.00;;;19.70;;
72286;SDS011;60221;45.696;16.076;2023-02-11T01:43:31;56.90;;;20.60;;
72286;SDS011;60221;45.696;16.076;2023-02-11T01:48:27;55.70;;;20.50;;
72286;SDS011;60221;45.696;16.076;2023-02-11T01:50:57;53.70;;;18.60;;
72286;SDS011;60221;45.696;16.076;2023-02-11T01:53:25;51.10;;;19.30;;
72286;SDS011;60221;45.696;16.076;2023-02-11T01:56:10;51.50;;;20.00;;
72286;SDS011;60221;45.696;16.076;2023-02-11T01:58:58;52.60;;;20.00;;
72286;SDS011;60221;45.696;16.076;2023-02-11T02:01:27;47.20;;;17.50;;
72286;SDS011;60221;45.696;16.076;2023-02-11T02:03:55;43.70;;;15.40;;
72286;SDS011;60221;45.696;16.076;2023-02-11T02:06:28;27.40;;;10.90;;
72286;SDS011;60221;45.696;16.076;2023-02-11T02:08:56;24.20;;;10.70;;
72286;SDS011;60221;45.696;16.076;2023-02-11T02:11:24;33.20;;;13.70;;
72286;SDS011;60221;45.696;16.076;2023-02-11T02:13:52;32.40;;;12.90;;
72286;SDS011;60221;45.696;16.076;2023-02-11T02:16:20;29.10;;;10.80;;
72286;SDS011;60221;45.696;16.076;2023-02-11T02:24:40;27.10;;;10.10;;
72286;SDS011;60221;45.696;16.076;2023-02-11T02:38:19;33.20;;;11.70;;
72286;SDS011;60221;45.696;16.076;2023-02-11T02:43:15;46.10;;;17.00;;
72286;SDS011;60221;45.696;16.076;2023-02-11T02:45:43;51.50;;;17.50;;
72286;SDS011;60221;45.696;16.076;2023-02-11T02:48:25;45.10;;;17.10;;
72286;SDS011;60221;45.696;16.076;2023-02-11T02:51:16;37.00;;;13.20;;
72286;SDS011;60221;45.696;16.076;2023-02-11T02:56:09;35.90;;;12.90;;
72286;SDS011;60221;45.696;16.076;2023-02-11T03:06:29;40.80;;;15.80;;
72286;SDS011;60221;45.696;16.076;2023-02-11T03:11:24;39.70;;;15.10;;
72286;SDS011;60221;45.696;16.076;2023-02-11T03:13:51;40.70;;;15.70;;
72286;SDS011;60221;45.696;16.076;2023-02-11T03:16:22;29.40;;;11.80;;
72286;SDS011;60221;45.696;16.076;2023-02-11T03:18:55;36.00;;;13.50;;
72286;SDS011;60221;45.696;16.076;2023-02-11T03:21:24;22.60;;;7.90;;
72286;SDS011;60221;45.696;16.076;2023-02-11T03:23:54;23.40;;;9.90;;
72286;SDS011;60221;45.696;16.076;2023-02-11T03:26:24;23.30;;;10.20;;
72286;SDS011;60221;45.696;16.076;2023-02-11T03:28:59;21.60;;;9.30;;
72286;SDS011;60221;45.696;16.076;2023-02-11T03:34:07;25.50;;;10.60;;
72286;SDS011;60221;45.696;16.076;2023-02-11T03:36:38;30.10;;;12.90;;
72286;SDS011;60221;45.696;16.076;2023-02-11T03:39:15;23.30;;;10.80;;
72286;SDS011;60221;45.696;16.076;2023-02-11T03:41:44;22.70;;;9.50;;
72286;SDS011;60221;45.696;16.076;2023-02-11T03:44:12;18.80;;;6.70;;
72286;SDS011;60221;45.696;16.076;2023-02-11T03:46:40;37.50;;;14.10;;
72286;SDS011;60221;45.696;16.076;2023-02-11T03:49:10;44.90;;;16.10;;
72286;SDS011;60221;45.696;16.076;2023-02-11T03:51:38;41.30;;;16.50;;
72286;SDS011;60221;45.696;16.076;2023-02-11T03:54:07;42.10;;;17.30;;
72286;SDS011;60221;45.696;16.076;2023-02-11T03:56:38;54.50;;;18.30;;
72286;SDS011;60221;45.696;16.076;2023-02-11T03:59:06;65.50;;;24.60;;
72286;SDS011;60221;45.696;16.076;2023-02-11T04:01:33;57.00;;;19.30;;
72286;SDS011;60221;45.696;16.076;2023-02-11T04:04:00;57.50;;;21.00;;
72286;SDS011;60221;45.696;16.076;2023-02-11T04:06:26;53.30;;;19.90;;
72286;SDS011;60221;45.696;16.076;2023-02-11T04:08:53;52.10;;;20.00;;
72286;SDS011;60221;45.696;16.076;2023-02-11T04:11:20;52.10;;;19.10;;
72286;SDS011;60221;45.696;16.076;2023-02-11T04:13:47;50.40;;;18.10;;
72286;SDS011;60221;45.696;16.076;2023-02-11T04:16:13;44.00;;;17.90;;
72286;SDS011;60221;45.696;16.076;2023-02-11T04:18:40;46.50;;;16.50;;
72286;SDS011;60221;45.696;16.076;2023-02-11T04:21:07;44.40;;;17.00;;
72286;SDS011;60221;45.696;16.076;2023-02-11T04:23:34;42.50;;;14.90;;
72286;SDS011;60221;45.696;16.076;2023-02-11T04:26:01;38.20;;;15.90;;
72286;SDS011;60221;45.696;16.076;2023-02-11T04:28:28;50.70;;;17.50;;
72286;SDS011;60221;45.696;16.076;2023-02-11T04:30:55;38.20;;;13.20;;
72286;SDS011;60221;45.696;16.076;2023-02-11T04:33:23;38.10;;;15.70;;
72286;SDS011;60221;45.696;16.076;2023-02-11T04:35:50;28.50;;;11.10;;
72286;SDS011;60221;45.696;16.076;2023-02-11T04:38:17;27.20;;;11.20;;
72286;SDS011;60221;45.696;16.076;2023-02-11T04:40:44;36.30;;;14.60;;
72286;SDS011;60221;45.696;16.076;2023-02-11T04:43:10;23.30;;;9.00;;
72286;SDS011;60221;45.696;16.076;2023-02-11T04:45:37;25.70;;;10.30;;
72286;SDS011;60221;45.696;16.076;2023-02-11T04:48:04;20.70;;;8.40;;
72286;SDS011;60221;45.696;16.076;2023-02-11T04:50:31;22.20;;;8.70;;
72286;SDS011;60221;45.696;16.076;2023-02-11T04:52:58;22.40;;;8.70;;
72286;SDS011;60221;45.696;16.076;2023-02-11T04:55:25;31.20;;;11.20;;
72286;SDS011;60221;45.696;16.076;2023-02-11T04:57:52;37.90;;;15.60;;
72286;SDS011;60221;45.696;16.076;2023-02-11T05:00:18;42.70;;;16.80;;
72286;SDS011;60221;45.696;16.076;2023-02-11T05:02:45;48.70;;;16.20;;
72286;SDS011;60221;45.696;16.076;2023-02-11T05:05:12;44.10;;;15.10;;
72286;SDS011;60221;45.696;16.076;2023-02-11T05:07:39;43.50;;;16.70;;
72286;SDS011;60221;45.696;16.076;2023-02-11T05:10:06;44.90;;;17.30;;
72286;SDS011;60221;45.696;16.076;2023-02-11T05:12:33;45.70;;;18.20;;
72286;SDS011;60221;45.696;16.076;2023-02-11T05:15:00;49.30;;;18.60;;
72286;SDS011;60221;45.696;16.076;2023-02-11T05:17:27;57.70;;;21.50;;
72286;SDS011;60221;45.696;16.076;2023-02-11T05:19:54;53.40;;;22.10;;
72286;SDS011;60221;45.696;16.076;2023-02-11T05:22:21;53.40;;;19.80;;
72286;SDS011;60221;45.696;16.076;2023-02-11T05:24:48;47.80;;;18.00;;
72286;SDS011;60221;45.696;16.076;2023-02-11T05:27:15;48.90;;;18.00;;
72286;SDS011;60221;45.696;16.076;2023-02-11T05:29:42;42.60;;;16.10;;
72286;SDS011;60221;45.696;16.076;2023-02-11T05:32:09;50.20;;;18.30;;
72286;SDS011;60221;45.696;16.076;2023-02-11T05:34:36;46.80;;;18.20;;
72286;SDS011;60221;45.696;16.076;2023-02-11T05:37:03;50.20;;;18.30;;
72286;SDS011;60221;45.696;16.076;2023-02-11T05:39:29;36.80;;;14.60;;
72286;SDS011;60221;45.696;16.076;2023-02-11T05:41:56;47.20;;;18.00;;
72286;SDS011;60221;45.696;16.076;2023-02-11T05:44:23;50.70;;;21.10;;
72286;SDS011;60221;45.696;16.076;2023-02-11T05:46:50;65.00;;;25.90;;
72286;SDS011;60221;45.696;16.076;2023-02-11T05:49:16;44.60;;;20.00;;
72286;SDS011;60221;45.696;16.076;2023-02-11T05:51:43;40.70;;;17.20;;
72286;SDS011;60221;45.696;16.076;2023-02-11T05:54:10;42.50;;;17.10;;
72286;SDS011;60221;45.696;16.076;2023-02-11T05:56:37;38.50;;;15.40;;
72286;SDS011;60221;45.696;16.076;2023-02-11T05:59:04;27.60;;;10.80;;
72286;SDS011;60221;45.696;16.076;2023-02-11T06:01:30;28.90;;;10.80;;
72286;SDS011;60221;45.696;16.076;2023-02-11T06:03:57;22.30;;;8.70;;
72286;SDS011;60221;45.696;16.076;2023-02-11T06:06:24;37.80;;;15.30;;
72286;SDS011;60221;45.696;16.076;2023-02-11T06:08:51;40.40;;;13.70;;
72286;SDS011;60221;45.696;16.076;2023-02-11T06:11:18;58.50;;;22.30;;
72286;SDS011;60221;45.696;16.076;2023-02-11T06:13:45;60.70;;;19.80;;
72286;SDS011;60221;45.696;16.076;2023-02-11T06:16:12;59.50;;;23.20;;
72286;SDS011;60221;45.696;16.076;2023-02-11T06:18:39;63.10;;;23.80;;
72286;SDS011;60221;45.696;16.076;2023-02-11T06:21:06;70.00;;;24.20;;
72286;SDS011;60221;45.696;16.076;2023-02-11T06:23:33;69.20;;;25.40;;
72286;SDS011;60221;45.696;16.076;2023-02-11T06:26:01;65.10;;;24.50;;
72286;SDS011;60221;45.696;16.076;2023-02-11T06:28:28;72.60;;;24.90;;
72286;SDS011;60221;45.696;16.076;2023-02-11T06:30:57;64.00;;;24.40;;
72286;SDS011;60221;45.696;16.076;2023-02-11T06:33:24;60.10;;;23.50;;
72286;SDS011;60221;45.696;16.076;2023-02-11T06:35:51;64.50;;;23.70;;
72286;SDS011;60221;45.696;16.076;2023-02-11T06:38:18;62.60;;;19.80;;
72286;SDS011;60221;45.696;16.076;2023-02-11T06:40:48;57.60;;;23.20;;
72286;SDS011;60221;45.696;16.076;2023-02-11T06:43:15;60.20;;;22.90;;
72286;SDS011;60221;45.696;16.076;2023-02-11T06:45:42;62.30;;;23.90;;
72286;SDS011;60221;45.696;16.076;2023-02-11T06:48:09;63.10;;;24.50;;
72286;SDS011;60221;45.696;16.076;2023-02-11T06:50:36;45.60;;;18.10;;
72286;SDS011;60221;45.696;16.076;2023-02-11T06:53:02;50.00;;;20.40;;
72286;SDS011;60221;45.696;16.076;2023-02-11T06:55:29;35.80;;;15.40;;
72286;SDS011;60221;45.696;16.076;2023-02-11T06:57:56;41.10;;;18.90;;
72286;SDS011;60221;45.696;16.076;2023-02-11T07:00:23;41.70;;;17.20;;
72286;SDS011;60221;45.696;16.076;2023-02-11T07:02:50;50.30;;;19.50;;
72286;SDS011;60221;45.696;16.076;2023-02-11T07:05:16;62.50;;;23.60;;
72286;SDS011;60221;45.696;16.076;2023-02-11T07:07:43;26.70;;;11.20;;
72286;SDS011;60221;45.696;16.076;2023-02-11T07:10:10;37.30;;;14.50;;
72286;SDS011;60221;45.696;16.076;2023-02-11T07:12:36;34.00;;;14.80;;
72286;SDS011;60221;45.696;16.076;2023-02-11T07:15:04;45.10;;;18.00;;
72286;SDS011;60221;45.696;16.076;2023-02-11T07:17:31;40.60;;;17.70;;
72286;SDS011;60221;45.696;16.076;2023-02-11T07:19:57;64.10;;;24.10;;
72286;SDS011;60221;45.696;16.076;2023-02-11T07:22:24;124.30;;;47.70;;
72286;SDS011;60221;45.696;16.076;2023-02-11T07:24:51;134.80;;;53.30;;
72286;SDS011;60221;45.696;16.076;2023-02-11T07:27:18;137.00;;;55.30;;
72286;SDS011;60221;45.696;16.076;2023-02-11T07:29:45;118.40;;;50.70;;
72286;SDS011;60221;45.696;16.076;2023-02-11T07:32:12;109.40;;;42.30;;
72286;SDS011;60221;45.696;16.076;2023-02-11T07:34:39;105.60;;;44.80;;
72286;SDS011;60221;45.696;16.076;2023-02-11T07:37:06;95.00;;;40.30;;
72286;SDS011;60221;45.696;16.076;2023-02-11T07:39:33;82.80;;;35.00;;
72286;SDS011;60221;45.696;16.076;2023-02-11T07:41:59;83.30;;;33.30;;
72286;SDS011;60221;45.696;16.076;2023-02-11T07:44:26;72.80;;;31.30;;
72286;SDS011;60221;45.696;16.076;2023-02-11T07:46:53;64.60;;;27.10;;
72286;SDS011;60221;45.696;16.076;2023-02-11T07:49:20;72.10;;;28.20;;
72286;SDS011;60221;45.696;16.076;2023-02-11T07:51:47;57.00;;;24.60;;
72286;SDS011;60221;45.696;16.076;2023-02-11T07:54:14;52.30;;;23.50;;
72286;SDS011;60221;45.696;16.076;2023-02-11T07:56:41;33.70;;;13.40;;
72286;SDS011;60221;45.696;16.076;2023-02-11T07:59:09;44.10;;;18.50;;
72286;SDS011;60221;45.696;16.076;2023-02-11T08:01:36;40.40;;;18.70;;
72286;SDS011;60221;45.696;16.076;2023-02-11T08:04:03;32.50;;;14.30;;
72286;SDS011;60221;45.696;16.076;2023-02-11T08:06:31;51.90;;;21.30;;
72286;SDS011;60221;45.696;16.076;2023-02-11T08:09:02;31.70;;;14.30;;
72286;SDS011;60221;45.696;16.076;2023-02-11T08:11:29;35.10;;;14.50;;
72286;SDS011;60221;45.696;16.076;2023-02-11T08:13:56;29.70;;;13.00;;
72286;SDS011;60221;45.696;16.076;2023-02-11T08:16:27;43.30;;;20.70;;
72286;SDS011;60221;45.696;16.076;2023-02-11T08:18:55;47.80;;;22.40;;
72286;SDS011;60221;45.696;16.076;2023-02-11T08:21:23;52.60;;;24.80;;
72286;SDS011;60221;45.696;16.076;2023-02-11T08:23:50;41.00;;;21.70;;
72286;SDS011;60221;45.696;16.076;2023-02-11T08:26:18;55.60;;;25.10;;
72286;SDS011;60221;45.696;16.076;2023-02-11T08:28:46;36.90;;;15.20;;
72286;SDS011;60221;45.696;16.076;2023-02-11T08:31:14;22.60;;;9.00;;
72286;SDS011;60221;45.696;16.076;2023-02-11T08:33:42;45.10;;;21.20;;
72286;SDS011;60221;45.696;16.076;2023-02-11T08:36:10;53.70;;;25.10;;
72286;SDS011;60221;45.696;16.076;2023-02-11T08:38:37;46.50;;;18.90;;
72286;SDS011;60221;45.696;16.076;2023-02-11T08:41:04;40.70;;;18.80;;
72286;SDS011;60221;45.696;16.076;2023-02-11T08:43:31;41.30;;;18.00;;
72286;SDS011;60221;45.696;16.076;2023-02-11T08:46:00;37.90;;;16.90;;
72286;SDS011;60221;45.696;16.076;2023-02-11T08:48:28;37.40;;;15.90;;
72286;SDS011;60221;45.696;16.076;2023-02-11T08:50:55;40.90;;;18.80;;
72286;SDS011;60221;45.696;16.076;2023-02-11T08:53:23;209.90;;;90.50;;
72286;SDS011;60221;45.696;16.076;2023-02-11T08:55:50;84.80;;;39.50;;
72286;SDS011;60221;45.696;16.076;2023-02-11T08:58:18;45.00;;;18.30;;
72286;SDS011;60221;45.696;16.076;2023-02-11T09:00:45;30.10;;;12.90;;
72286;SDS011;60221;45.696;16.076;2023-02-11T09:03:12;30.30;;;11.70;;
72286;SDS011;60221;45.696;16.076;2023-02-11T09:05:45;26.10;;;11.70;;
72286;SDS011;60221;45.696;16.076;2023-02-11T09:08:12;30.00;;;12.30;;
72286;SDS011;60221;45.696;16.076;2023-02-11T09:10:39;32.10;;;12.90;;
72286;SDS011;60221;45.696;16.076;2023-02-11T09:13:06;26.80;;;12.20;;
72286;SDS011;60221;45.696;16.076;2023-02-11T09:15:33;28.90;;;11.60;;
72286;SDS011;60221;45.696;16.076;2023-02-11T09:18:00;28.70;;;12.10;;
72286;SDS011;60221;45.696;16.076;2023-02-11T09:20:27;28.80;;;13.00;;
72286;SDS011;60221;45.696;16.076;2023-02-11T09:22:55;24.40;;;11.10;;
72286;SDS011;60221;45.696;16.076;2023-02-11T09:25:23;21.90;;;9.60;;
72286;SDS011;60221;45.696;16.076;2023-02-11T09:27:50;37.00;;;16.90;;
72286;SDS011;60221;45.696;16.076;2023-02-11T09:30:17;25.00;;;10.50;;
72286;SDS011;60221;45.696;16.076;2023-02-11T09:32:44;23.20;;;10.80;;
72286;SDS011;60221;45.696;16.076;2023-02-11T09:35:11;33.40;;;15.20;;
72286;SDS011;60221;45.696;16.076;2023-02-11T09:37:38;111.40;;;59.40;;
72286;SDS011;60221;45.696;16.076;2023-02-11T09:40:05;88.70;;;48.70;;
72286;SDS011;60221;45.696;16.076;2023-02-11T09:42:45;32.80;;;14.10;;
72286;SDS011;60221;45.696;16.076;2023-02-11T09:45:18;34.80;;;16.60;;
72286;SDS011;60221;45.696;16.076;2023-02-11T09:48:29;23.70;;;11.60;;
72286;SDS011;60221;45.696;16.076;2023-02-11T09:50:38;29.50;;;13.00;;
72286;SDS011;60221;45.696;16.076;2023-02-11T09:53:09;44.90;;;15.90;;
72286;SDS011;60221;45.696;16.076;2023-02-11T09:55:39;24.80;;;9.20;;
72286;SDS011;60221;45.696;16.076;2023-02-11T10:00:49;31.80;;;12.60;;
72286;SDS011;60221;45.696;16.076;2023-02-11T10:08:33;23.40;;;11.80;;
72286;SDS011;60221;45.696;16.076;2023-02-11T10:11:25;18.90;;;9.00;;
72286;SDS011;60221;45.696;16.076;2023-02-11T10:24:13;19.20;;;8.90;;
72286;SDS011;60221;45.696;16.076;2023-02-11T10:26:40;15.70;;;6.80;;
72286;SDS011;60221;45.696;16.076;2023-02-11T10:31:54;23.60;;;9.50;;
72286;SDS011;60221;45.696;16.076;2023-02-11T10:34:23;22.20;;;11.30;;
72286;SDS011;60221;45.696;16.076;2023-02-11T10:36:50;23.70;;;10.60;;
72286;SDS011;60221;45.696;16.076;2023-02-11T10:39:19;24.60;;;10.80;;
72286;SDS011;60221;45.696;16.076;2023-02-11T10:41:48;21.10;;;10.00;;
72286;SDS011;60221;45.696;16.076;2023-02-11T10:44:38;25.50;;;11.40;;
72286;SDS011;60221;45.696;16.076;2023-02-11T10:47:04;20.50;;;9.00;;
72286;SDS011;60221;45.696;16.076;2023-02-11T10:49:36;18.60;;;8.20;;
72286;SDS011;60221;45.696;16.076;2023-02-11T10:52:20;24.20;;;11.20;;
72286;SDS011;60221;45.696;16.076;2023-02-11T10:55:14;18.10;;;8.50;;
72286;SDS011;60221;45.696;16.076;2023-02-11T10:57:37;32.40;;;13.00;;
72286;SDS011;60221;45.696;16.076;2023-02-11T11:02:44;21.70;;;10.60;;
72286;SDS011;60221;45.696;16.076;2023-02-11T11:05:18;39.30;;;13.50;;
72286;SDS011;60221;45.696;16.076;2023-02-11T11:07:56;25.30;;;10.40;;
72286;SDS011;60221;45.696;16.076;2023-02-11T11:10:25;29.50;;;10.90;;
72286;SDS011;60221;45.696;16.076;2023-02-11T11:12:52;24.00;;;10.80;;
72286;SDS011;60221;45.696;16.076;2023-02-11T11:17:48;23.30;;;10.60;;
72286;SDS011;60221;45.696;16.076;2023-02-11T11:22:46;22.90;;;10.50;;
72286;SDS011;60221;45.696;16.076;2023-02-11T11:25:26;26.70;;;12.30;;
72286;SDS011;60221;45.696;16.076;2023-02-11T11:27:56;26.70;;;12.60;;
72286;SDS011;60221;45.696;16.076;2023-02-11T11:30:25;19.70;;;9.40;;
72286;SDS011;60221;45.696;16.076;2023-02-11T11:32:53;23.00;;;10.10;;
72286;SDS011;60221;45.696;16.076;2023-02-11T11:35:23;19.80;;;9.30;;
72286;SDS011;60221;45.696;16.076;2023-02-11T11:37:56;22.10;;;10.00;;
72286;SDS011;60221;45.696;16.076;2023-02-11T11:40:28;21.10;;;10.20;;
72286;SDS011;60221;45.696;16.076;2023-02-11T11:45:29;27.30;;;12.60;;
72286;SDS011;60221;45.696;16.076;2023-02-11T11:52:52;26.90;;;11.70;;
72286;SDS011;60221;45.696;16.076;2023-02-11T11:55:22;17.60;;;8.30;;
72286;SDS011;60221;45.696;16.076;2023-02-11T11:57:50;24.90;;;15.40;;
72286;SDS011;60221;45.696;16.076;2023-02-11T12:00:19;19.40;;;10.10;;
72286;SDS011;60221;45.696;16.076;2023-02-11T12:05:17;22.90;;;8.80;;
72286;SDS011;60221;45.696;16.076;2023-02-11T12:10:40;22.10;;;10.60;;
72286;SDS011;60221;45.696;16.076;2023-02-11T12:16:15;19.10;;;9.20;;
72286;SDS011;60221;45.696;16.076;2023-02-11T12:26:22;20.90;;;9.70;;
72286;SDS011;60221;45.696;16.076;2023-02-11T12:31:34;25.60;;;12.10;;
72286;SDS011;60221;45.696;16.076;2023-02-11T12:39:33;37.10;;;16.20;;
72286;SDS011;60221;45.696;16.076;2023-02-11T12:47:43;59.80;;;27.50;;
72286;SDS011;60221;45.696;16.076;2023-02-11T12:51:12;69.70;;;32.30;;
72286;SDS011;60221;45.696;16.076;2023-02-11T12:56:00;51.80;;;30.00;;
72286;SDS011;60221;45.696;16.076;2023-02-11T12:58:29;36.00;;;15.90;;
72286;SDS011;60221;45.696;16.076;2023-02-11T13:01:13;35.20;;;16.00;;
72286;SDS011;60221;45.696;16.076;2023-02-11T13:03:48;28.50;;;12.40;;
72286;SDS011;60221;45.696;16.076;2023-02-11T13:06:19;27.10;;;11.40;;
72286;SDS011;60221;45.696;16.076;2023-02-11T13:08:49;18.30;;;8.70;;
72286;SDS011;60221;45.696;16.076;2023-02-11T13:11:19;17.10;;;8.00;;
72286;SDS011;60221;45.696;16.076;2023-02-11T13:16:29;22.00;;;10.70;;
72286;SDS011;60221;45.696;16.076;2023-02-11T13:19:05;17.30;;;7.60;;
72286;SDS011;60221;45.696;16.076;2023-02-11T13:27:05;23.70;;;11.30;;
72286;SDS011;60221;45.696;16.076;2023-02-11T13:32:24;18.40;;;8.50;;
72286;SDS011;60221;45.696;16.076;2023-02-11T13:34:55;20.10;;;9.40;;
72286;SDS011;60221;45.696;16.076;2023-02-11T13:39:57;16.70;;;7.50;;
72286;SDS011;60221;45.696;16.076;2023-02-11T13:42:26;30.80;;;15.20;;
72286;SDS011;60221;45.696;16.076;2023-02-11T13:44:54;49.00;;;23.80;;
72286;SDS011;60221;45.696;16.076;2023-02-11T13:47:24;42.90;;;22.50;;
72286;SDS011;60221;45.696;16.076;2023-02-11T13:49:54;22.60;;;11.70;;
72286;SDS011;60221;45.696;16.076;2023-02-11T13:54:49;18.60;;;8.40;;
72286;SDS011;60221;45.696;16.076;2023-02-11T13:57:21;16.80;;;7.00;;
72286;SDS011;60221;45.696;16.076;2023-02-11T13:59:54;12.60;;;5.90;;
72286;SDS011;60221;45.696;16.076;2023-02-11T14:02:33;20.00;;;7.90;;
72286;SDS011;60221;45.696;16.076;2023-02-11T14:11:06;20.10;;;8.70;;
72286;SDS011;60221;45.696;16.076;2023-02-11T14:31:40;13.80;;;5.30;;
72286;SDS011;60221;45.696;16.076;2023-02-11T14:34:17;16.70;;;7.70;;
72286;SDS011;60221;45.696;16.076;2023-02-11T14:41:47;17.20;;;7.60;;
72286;SDS011;60221;45.696;16.076;2023-02-11T14:44:18;15.90;;;7.00;;
72286;SDS011;60221;45.696;16.076;2023-02-11T14:46:46;15.90;;;6.20;;
72286;SDS011;60221;45.696;16.076;2023-02-11T14:49:30;15.30;;;6.10;;
72286;SDS011;60221;45.696;16.076;2023-02-11T14:52:45;16.30;;;6.80;;
72286;SDS011;60221;45.696;16.076;2023-02-11T14:54:47;17.70;;;6.80;;
72286;SDS011;60221;45.696;16.076;2023-02-11T14:57:15;20.30;;;8.40;;
72286;SDS011;60221;45.696;16.076;2023-02-11T14:59:56;18.30;;;7.40;;
72286;SDS011;60221;45.696;16.076;2023-02-11T15:02:32;20.40;;;8.90;;
72286;SDS011;60221;45.696;16.076;2023-02-11T15:05:18;36.10;;;14.90;;
72286;SDS011;60221;45.696;16.076;2023-02-11T15:07:50;37.60;;;15.40;;
72286;SDS011;60221;45.696;16.076;2023-02-11T15:11:07;22.90;;;8.90;;
72286;SDS011;60221;45.696;16.076;2023-02-11T15:13:06;20.60;;;8.90;;
72286;SDS011;60221;45.696;16.076;2023-02-11T15:15:33;23.40;;;11.10;;
72286;SDS011;60221;45.696;16.076;2023-02-11T15:18:03;17.80;;;8.20;;
72286;SDS011;60221;45.696;16.076;2023-02-11T15:20:32;12.20;;;4.90;;
72286;SDS011;60221;45.696;16.076;2023-02-11T15:23:04;13.60;;;5.50;;
72286;SDS011;60221;45.696;16.076;2023-02-11T15:25:33;14.20;;;4.90;;
72286;SDS011;60221;45.696;16.076;2023-02-11T15:28:31;11.90;;;4.30;;
72286;SDS011;60221;45.696;16.076;2023-02-11T15:33:24;11.90;;;5.00;;
72286;SDS011;60221;45.696;16.076;2023-02-11T15:35:52;16.90;;;6.00;;
72286;SDS011;60221;45.696;16.076;2023-02-11T15:38:20;16.30;;;6.30;;
72286;SDS011;60221;45.696;16.076;2023-02-11T15:40:51;13.10;;;5.10;;
72286;SDS011;60221;45.696;16.076;2023-02-11T15:43:20;13.30;;;5.70;;
72286;SDS011;60221;45.696;16.076;2023-02-11T15:45:54;14.60;;;5.10;;
72286;SDS011;60221;45.696;16.076;2023-02-11T15:48:24;66.80;;;21.90;;
72286;SDS011;60221;45.696;16.076;2023-02-11T15:50:56;47.10;;;17.10;;
72286;SDS011;60221;45.696;16.076;2023-02-11T15:53:29;52.40;;;18.20;;
72286;SDS011;60221;45.696;16.076;2023-02-11T15:56:19;46.90;;;18.10;;
72286;SDS011;60221;45.696;16.076;2023-02-11T15:58:51;80.80;;;30.10;;
72286;SDS011;60221;45.696;16.076;2023-02-11T16:01:30;67.00;;;25.20;;
72286;SDS011;60221;45.696;16.076;2023-02-11T16:03:59;41.70;;;16.10;;
72286;SDS011;60221;45.696;16.076;2023-02-11T16:06:36;32.10;;;11.80;;
72286;SDS011;60221;45.696;16.076;2023-02-11T16:19:26;43.50;;;18.60;;
72286;SDS011;60221;45.696;16.076;2023-02-11T16:21:57;41.10;;;18.90;;
72286;SDS011;60221;45.696;16.076;2023-02-11T16:24:31;52.20;;;19.90;;
72286;SDS011;60221;45.696;16.076;2023-02-11T16:27:00;65.10;;;23.90;;
72286;SDS011;60221;45.696;16.076;2023-02-11T16:29:30;52.70;;;19.00;;
72286;SDS011;60221;45.696;16.076;2023-02-11T16:32:09;87.10;;;29.50;;
72286;SDS011;60221;45.696;16.076;2023-02-11T16:34:37;153.10;;;50.50;;
72286;SDS011;60221;45.696;16.076;2023-02-11T16:37:05;162.80;;;58.90;;
72286;SDS011;60221;45.696;16.076;2023-02-11T16:39:32;97.30;;;37.10;;
72286;SDS011;60221;45.696;16.076;2023-02-11T16:42:00;95.70;;;37.90;;
72286;SDS011;60221;45.696;16.076;2023-02-11T16:44:32;83.30;;;34.00;;
72286;SDS011;60221;45.696;16.076;2023-02-11T16:47:01;78.10;;;33.00;;
72286;SDS011;60221;45.696;16.076;2023-02-11T16:49:30;61.20;;;28.00;;
72286;SDS011;60221;45.696;16.076;2023-02-11T16:51:59;60.50;;;25.50;;
72286;SDS011;60221;45.696;16.076;2023-02-11T16:54:28;58.80;;;25.60;;
72286;SDS011;60221;45.696;16.076;2023-02-11T16:56:57;51.50;;;21.70;;
72286;SDS011;60221;45.696;16.076;2023-02-11T16:59:26;46.60;;;20.40;;
72286;SDS011;60221;45.696;16.076;2023-02-11T17:01:54;46.10;;;18.70;;
72286;SDS011;60221;45.696;16.076;2023-02-11T17:04:26;38.00;;;15.80;;
72286;SDS011;60221;45.696;16.076;2023-02-11T17:06:54;41.60;;;15.60;;